Time;durP1;ratioP1;P1;durP2;ratioP2;P2;SDS_P1;SDS_P2;PMS_P1;PMS_P2;Temp;Humidity;BMP_temperature;BMP_pressure;BME280_temperature;BME280_humidity;BME280_pressure;Samples;Min_cycle;Max_cycle;Signal;HPM_P1;HPM_P2
2022/06/24 00:01:41;;;;;;;12.30;4.60;;;;;;;;;;5024321;28;20140;-84
2022/06/24 00:04:08;;;;;;;12.88;4.05;;;;;;;;;;5026209;28;20053;-84
2022/06/24 00:06:47;;;;;;;11.70;4.18;;;;;;;;;;5021345;28;20046;-83
2022/06/24 00:09:14;;;;;;;12.45;4.43;;;;;;;;;;5013647;28;20159;-82
2022/06/24 00:11:41;;;;;;;11.82;4.60;;;;;;;;;;5023087;28;20049;-82
2022/06/24 00:14:08;;;;;;;9.55;4.10;;;;;;;;;;5017957;28;20056;-84
2022/06/24 00:16:56;;;;;;;10.57;3.95;;;;;;;;;;5028054;28;20071;-83
2022/06/24 00:19:26;;;;;;;11.32;4.30;;;;;;;;;;5027332;28;20053;-83
2022/06/24 00:21:58;;;;;;;8.80;4.15;;;;;;;;;;5030105;28;20132;-83
2022/06/24 00:24:24;;;;;;;12.02;4.70;;;;;;;;;;5024807;28;20068;-83
2022/06/24 00:26:50;;;;;;;13.18;4.45;;;;;;;;;;5025816;28;20182;-82
2022/06/24 00:29:17;;;;;;;12.65;4.50;;;;;;;;;;5028682;28;20108;-83
2022/06/24 00:32:02;;;;;;;10.10;4.47;;;;;;;;;;5027918;28;20042;-79
2022/06/24 00:34:28;;;;;;;9.50;4.55;;;;;;;;;;5024926;28;20136;-79
2022/06/24 00:36:57;;;;;;;9.20;4.80;;;;;;;;;;5026207;28;20435;-83
2022/06/24 00:39:35;;;;;;;11.85;4.30;;;;;;;;;;5023412;28;20524;-83
2022/06/24 00:42:02;;;;;;;9.50;4.40;;;;;;;;;;5024098;28;20497;-83
2022/06/24 00:44:34;;;;;;;11.05;4.50;;;;;;;;;;5028297;28;20343;-84
2022/06/24 00:47:01;;;;;;;11.95;4.85;;;;;;;;;;5025984;28;20041;-82
2022/06/24 00:49:28;;;;;;;9.95;4.60;;;;;;;;;;5024634;28;20050;-81
2022/06/24 00:51:54;;;;;;;11.57;4.78;;;;;;;;;;5021002;28;20049;-82
2022/06/24 00:54:23;;;;;;;10.07;4.60;;;;;;;;;;5020803;28;20111;-82
2022/06/24 00:56:54;;;;;;;10.75;5.15;;;;;;;;;;5024929;28;20095;-82
2022/06/24 00:59:20;;;;;;;9.73;4.63;;;;;;;;;;5026195;28;20103;-83
2022/06/24 01:01:49;;;;;;;9.25;4.68;;;;;;;;;;5024744;28;20140;-83
2022/06/24 01:04:15;;;;;;;12.65;4.63;;;;;;;;;;5028049;28;20068;-82
2022/06/24 01:06:43;;;;;;;9.07;4.68;;;;;;;;;;5023991;28;20155;-83
2022/06/24 01:09:09;;;;;;;10.32;4.70;;;;;;;;;;5024915;28;20045;-82
2022/06/24 01:11:36;;;;;;;11.15;4.93;;;;;;;;;;5023736;28;20050;-83
2022/06/24 01:14:03;;;;;;;11.75;5.00;;;;;;;;;;5029577;28;20342;-83
2022/06/24 01:16:33;;;;;;;11.35;5.18;;;;;;;;;;5024829;28;20416;-83
2022/06/24 01:19:00;;;;;;;13.38;4.97;;;;;;;;;;5029125;28;20053;-83
2022/06/24 01:21:32;;;;;;;11.32;4.88;;;;;;;;;;5024186;28;20057;-83
2022/06/24 01:24:06;;;;;;;9.98;5.13;;;;;;;;;;5024484;28;20045;-83
2022/06/24 01:26:32;;;;;;;10.77;5.10;;;;;;;;;;5025357;28;20061;-82
2022/06/24 01:28:58;;;;;;;10.68;5.03;;;;;;;;;;5027148;28;20453;-82
2022/06/24 01:31:24;;;;;;;;;;;;;;;;;;5028716;28;20100;-82
2022/06/24 01:33:50;;;;;;;13.40;5.47;;;;;;;;;;5029014;28;19956;-82
2022/06/24 01:36:19;;;;;;;12.35;5.10;;;;;;;;;;5025447;28;20589;-82
2022/06/24 01:38:45;;;;;;;10.50;4.93;;;;;;;;;;5027126;28;20453;-83
2022/06/24 01:41:11;;;;;;;11.65;4.95;;;;;;;;;;5023788;28;20132;-83
2022/06/24 01:43:39;;;;;;;10.50;5.03;;;;;;;;;;5027745;28;20077;-83
2022/06/24 01:46:05;;;;;;;13.02;5.00;;;;;;;;;;5020850;28;20041;-83
2022/06/24 01:48:31;;;;;;;12.75;4.93;;;;;;;;;;5027057;28;20353;-83
2022/06/24 01:50:57;;;;;;;;;;;;;;;;;;5025183;28;21326;-81
2022/06/24 01:53:23;;;;;;;12.95;5.07;;;;;;;;;;5028441;28;20016;-83
2022/06/24 01:55:49;;;;;;;15.27;5.20;;;;;;;;;;5028039;28;20038;-83
2022/06/24 01:58:15;;;;;;;;;;;;;;;;;;5026615;28;20111;-83
2022/06/24 02:00:41;;;;;;;13.10;5.53;;;;;;;;;;5022259;28;19960;-82
2022/06/24 02:03:07;;;;;;;14.27;5.10;;;;;;;;;;5027448;28;20112;-83
2022/06/24 02:05:34;;;;;;;10.32;5.18;;;;;;;;;;5029821;28;20128;-83
2022/06/24 02:08:00;;;;;;;12.10;4.85;;;;;;;;;;5026965;28;20101;-81
2022/06/24 02:13:29;;;;;;;11.32;5.10;;;;;;;;;;5027903;28;19929;-83
2022/06/24 02:15:56;;;;;;;10.90;5.00;;;;;;;;;;5025953;28;20053;-81
2022/06/24 02:18:23;;;;;;;11.73;5.43;;;;;;;;;;5028866;28;20049;-83
2022/06/24 02:20:50;;;;;;;11.43;5.03;;;;;;;;;;5019636;28;20053;-82
2022/06/24 02:23:16;;;;;;;13.32;5.10;;;;;;;;;;5026154;28;20053;-83
2022/06/24 02:25:42;;;;;;;10.75;4.90;;;;;;;;;;5028420;28;20115;-81
2022/06/24 02:28:08;;;;;;;10.48;5.05;;;;;;;;;;5025187;28;20045;-82
2022/06/24 02:30:34;;;;;;;;;;;;;;;;;;5027441;28;20055;-83
2022/06/24 02:33:00;;;;;;;13.80;5.35;;;;;;;;;;5021375;28;20313;-83
2022/06/24 02:35:26;;;;;;;;;;;;;;;;;;5029514;28;20064;-84
2022/06/24 02:37:52;;;;;;;15.00;5.20;;;;;;;;;;5015980;28;19925;-83
2022/06/24 02:43:11;;;;;;;12.65;5.22;;;;;;;;;;5020745;28;20057;-81
2022/06/24 02:45:37;;;;;;;11.38;5.35;;;;;;;;;;5025311;28;20343;-83
2022/06/24 02:48:03;;;;;;;;;;;;;;;;;;5023421;28;20093;-81
2022/06/24 02:50:29;;;;;;;10.68;4.95;;;;;;;;;;5027701;28;19943;-84
2022/06/24 02:52:55;;;;;;;;;;;;;;;;;;5025395;28;20477;-82
2022/06/24 02:55:21;;;;;;;11.10;5.40;;;;;;;;;;5026071;28;20008;-83
2022/06/24 02:57:48;;;;;;;9.82;4.95;;;;;;;;;;5022770;28;20399;-83
2022/06/24 03:00:13;;;;;;;;;;;;;;;;;;5024897;28;20049;-82
2022/06/24 03:02:39;;;;;;;10.80;5.50;;;;;;;;;;5024733;28;20238;-84
2022/06/24 03:05:06;;;;;;;11.88;5.28;;;;;;;;;;5025718;28;20053;-80
2022/06/24 03:07:32;;;;;;;;;;;;;;;;;;5022794;28;20052;-84
2022/06/24 03:09:58;;;;;;;15.07;6.88;;;;;;;;;;5025314;28;20329;-83
2022/06/24 03:12:24;;;;;;;;;;;;;;;;;;5021352;28;20141;-86
2022/06/24 03:14:50;;;;;;;10.85;6.03;;;;;;;;;;5025566;28;20086;-85
2022/06/24 03:17:16;;;;;;;13.40;6.18;;;;;;;;;;5023272;28;20117;-81
2022/06/24 03:19:42;;;;;;;12.93;6.05;;;;;;;;;;5007171;28;20053;-84
2022/06/24 03:22:08;;;;;;;10.88;5.70;;;;;;;;;;5021712;28;20180;-81
2022/06/24 03:24:34;;;;;;;;;;;;;;;;;;5007575;28;20088;-84
2022/06/24 03:27:00;;;;;;;12.68;6.30;;;;;;;;;;5024493;28;19984;-86
2022/06/24 03:29:26;;;;;;;;;;;;;;;;;;5021486;28;20469;-83
2022/06/24 03:31:52;;;;;;;13.15;6.22;;;;;;;;;;5024916;28;20017;-84
2022/06/24 03:34:18;;;;;;;13.27;6.63;;;;;;;;;;5023824;28;20049;-84
2022/06/24 03:36:44;;;;;;;;;;;;;;;;;;5024796;28;20416;-85
2022/06/24 03:39:10;;;;;;;13.18;6.30;;;;;;;;;;5023207;28;20023;-80
2022/06/24 03:41:36;;;;;;;;;;;;;;;;;;5013504;28;20121;-85
2022/06/24 03:44:02;;;;;;;16.60;6.40;;;;;;;;;;5019686;28;19971;-80
2022/06/24 03:46:28;;;;;;;12.13;6.18;;;;;;;;;;5025701;28;20401;-81
2022/06/24 03:48:54;;;;;;;12.45;5.80;;;;;;;;;;5024552;28;20465;-82
2022/06/24 03:51:20;;;;;;;11.70;5.60;;;;;;;;;;5021772;28;20477;-81
2022/06/24 03:53:46;;;;;;;;;;;;;;;;;;5023609;28;20469;-82
2022/06/24 03:56:13;;;;;;;14.37;6.33;;;;;;;;;;5024898;28;19924;-78
2022/06/24 03:58:39;;;;;;;11.88;5.93;;;;;;;;;;5023145;28;20041;-82
2022/06/24 04:01:05;;;;;;;;;;;;;;;;;;5026694;28;20126;-78
2022/06/24 04:03:31;;;;;;;12.48;6.15;;;;;;;;;;5023227;28;19951;-80
2022/06/24 04:05:57;;;;;;;12.13;5.72;;;;;;;;;;5026065;28;20450;-75
2022/06/24 04:08:23;;;;;;;11.18;5.38;;;;;;;;;;5023391;28;20041;-80
2022/06/24 04:10:51;;;;;;;12.35;5.90;;;;;;;;;;5022698;28;20085;-78
2022/06/24 04:13:17;;;;;;;12.50;5.68;;;;;;;;;;5021652;28;20155;-77
2022/06/24 04:15:47;;;;;;;11.25;5.78;;;;;;;;;;5024615;28;20068;-81
2022/06/24 04:18:13;;;;;;;13.82;6.22;;;;;;;;;;5024470;28;20081;-82
2022/06/24 04:20:39;;;;;;;12.20;5.95;;;;;;;;;;5021716;28;20037;-82
2022/06/24 04:23:06;;;;;;;12.93;5.60;;;;;;;;;;5024288;28;20104;-79
2022/06/24 04:25:33;;;;;;;11.88;6.03;;;;;;;;;;5021699;28;20432;-80
2022/06/24 04:27:59;;;;;;;15.90;6.45;;;;;;;;;;5025084;28;20176;-80
2022/06/24 04:30:25;;;;;;;;;;;;;;;;;;5010697;28;20064;-82
2022/06/24 04:32:51;;;;;;;15.65;5.90;;;;;;;;;;5024964;28;19921;-83
2022/06/24 04:35:17;;;;;;;11.02;5.90;;;;;;;;;;5023185;28;20064;-77
2022/06/24 04:37:43;;;;;;;;;;;;;;;;;;5026518;28;20087;-79
2022/06/24 04:40:11;;;;;;;12.65;5.47;;;;;;;;;;5024162;28;19940;-77
2022/06/24 04:42:37;;;;;;;13.52;5.90;;;;;;;;;;5024382;28;20075;-82
2022/06/24 04:45:04;;;;;;;15.65;6.30;;;;;;;;;;5022683;28;20108;-84
2022/06/24 04:47:30;;;;;;;14.73;6.45;;;;;;;;;;5025340;28;20045;-85
2022/06/24 04:49:56;;;;;;;12.10;5.75;;;;;;;;;;5021451;28;20045;-85
2022/06/24 04:52:22;;;;;;;;;;;;;;;;;;5023229;28;20053;-81
2022/06/24 04:54:50;;;;;;;10.85;5.82;;;;;;;;;;5023346;28;19921;-84
2022/06/24 04:57:16;;;;;;;13.98;6.15;;;;;;;;;;5024911;28;20149;-79
2022/06/24 04:59:42;;;;;;;;;;;;;;;;;;5024470;28;20132;-79
2022/06/24 05:02:08;;;;;;;14.88;6.05;;;;;;;;;;5024588;28;20436;-79
2022/06/24 05:04:35;;;;;;;14.75;6.18;;;;;;;;;;5025067;28;20132;-79
2022/06/24 05:07:02;;;;;;;13.00;5.90;;;;;;;;;;5026030;28;20432;-78
2022/06/24 05:09:28;;;;;;;12.45;5.47;;;;;;;;;;5023013;28;20049;-78
2022/06/24 05:11:54;;;;;;;10.95;6.22;;;;;;;;;;5026930;28;20042;-78
2022/06/24 05:14:20;;;;;;;;;;;;;;;;;;5026871;28;20107;-79
2022/06/24 05:16:46;;;;;;;11.77;5.60;;;;;;;;;;5026216;28;19932;-80
2022/06/24 05:19:12;;;;;;;13.00;6.30;;;;;;;;;;5042067;28;20094;-79
2022/06/24 05:21:38;;;;;;;;;;;;;;;;;;5024847;28;20053;-80
2022/06/24 05:24:04;;;;;;;13.32;6.20;;;;;;;;;;5024763;28;19974;-79
2022/06/24 05:26:30;;;;;;;14.23;6.38;;;;;;;;;;5009289;28;20128;-78
2022/06/24 05:28:57;;;;;;;15.20;5.78;;;;;;;;;;5026188;28;20068;-78
2022/06/24 05:31:23;;;;;;;12.00;5.82;;;;;;;;;;5006234;28;20050;-79
2022/06/24 05:33:49;;;;;;;;;;;;;;;;;;5021551;28;20053;-81
2022/06/24 05:36:15;;;;;;;10.52;5.68;;;;;;;;;;5019830;28;19971;-71
2022/06/24 05:38:42;;;;;;;;;;;;;;;;;;5023621;28;20052;-71
2022/06/24 05:41:08;;;;;;;14.82;7.00;;;;;;;;;;5026590;28;19935;-74
2022/06/24 05:43:34;;;;;;;;;;;;;;;;;;5017976;28;20516;-75
2022/06/24 05:46:00;;;;;;;12.48;6.97;;;;;;;;;;5022935;28;19933;-77
2022/06/24 05:48:28;;;;;;;16.20;9.20;;;;;;;;;;5024736;28;20139;-77
2022/06/24 05:50:54;;;;;;;17.08;9.05;;;;;;;;;;5024970;28;20412;-73
2022/06/24 05:56:05;;;;;;;18.50;10.23;;;;;;;;;;5025647;28;19931;-76
2022/06/24 05:58:31;;;;;;;;;;;;;;;;;;5021243;28;20076;-75
2022/06/24 06:00:58;;;;;;;18.40;11.38;;;;;;;;;;5020369;28;19921;-73
2022/06/24 06:03:24;;;;;;;24.02;11.73;;;;;;;;;;5020433;28;20057;-73
2022/06/24 06:05:51;;;;;;;26.33;12.02;;;;;;;;;;5024424;28;20057;-73
2022/06/24 06:08:18;;;;;;;19.75;10.95;;;;;;;;;;5041034;28;20045;-72
2022/06/24 06:10:44;;;;;;;22.77;12.30;;;;;;;;;;5025586;28;20045;-73
2022/06/24 06:13:13;;;;;;;22.08;10.68;;;;;;;;;;5018261;28;20052;-74
2022/06/24 06:15:42;;;;;;;20.80;10.98;;;;;;;;;;5021281;28;20355;-78
2022/06/24 06:18:08;;;;;;;21.77;10.40;;;;;;;;;;5022936;28;20076;-76
2022/06/24 06:20:34;;;;;;;;;;;;;;;;;;5026683;28;20463;-84
2022/06/24 06:23:00;;;;;;;23.33;10.73;;;;;;;;;;5007916;28;19921;-76
2022/06/24 06:25:26;;;;;;;;;;;;;;;;;;5017782;28;20073;-74
2022/06/24 06:27:52;;;;;;;29.73;13.82;;;;;;;;;;5020764;28;19928;-73
2022/06/24 06:30:18;;;;;;;;;;;;;;;;;;5015947;28;20066;-73
2022/06/24 06:32:44;;;;;;;23.75;11.43;;;;;;;;;;5019937;28;20364;-73
2022/06/24 06:35:10;;;;;;;30.35;13.07;;;;;;;;;;5019005;28;20049;-72
2022/06/24 06:37:36;;;;;;;;;;;;;;;;;;5022306;28;20045;-72
2022/06/24 06:40:02;;;;;;;24.05;9.80;;;;;;;;;;5025521;28;20378;-72
2022/06/24 06:42:28;;;;;;;;;;;;;;;;;;5027936;28;20495;-73
2022/06/24 06:44:55;;;;;;;20.20;9.55;;;;;;;;;;5026029;28;19928;-73
2022/06/24 06:47:21;;;;;;;24.15;9.70;;;;;;;;;;5026586;28;20088;-72
2022/06/24 06:49:47;;;;;;;23.45;9.95;;;;;;;;;;5015426;28;20049;-72
2022/06/24 06:52:13;;;;;;;;;;;;;;;;;;5026022;28;20064;-71
2022/06/24 06:54:39;;;;;;;21.98;10.23;;;;;;;;;;5022669;28;19920;-72
2022/06/24 06:57:05;;;;;;;;;;;;;;;;;;5024251;28;20456;-72
2022/06/24 06:59:31;;;;;;;24.70;10.50;;;;;;;;;;5023172;28;20003;-72
2022/06/24 07:01:57;;;;;;;;;;;;;;;;;;5023994;28;20088;-73
2022/06/24 07:04:24;;;;;;;21.65;9.45;;;;;;;;;;5017746;28;20038;-73
2022/06/24 07:06:52;;;;;;;22.30;10.30;;;;;;;;;;5023338;28;20560;-73
2022/06/24 07:09:19;;;;;;;26.08;9.77;;;;;;;;;;5019801;28;20456;-73
2022/06/24 07:11:44;;;;;;;;;;;;;;;;;;5022773;28;20179;-72
2022/06/24 07:14:10;;;;;;;23.90;10.80;;;;;;;;;;5020545;28;20047;-72
2022/06/24 07:16:36;;;;;;;;;;;;;;;;;;5023023;28;20052;-73
2022/06/24 07:19:03;;;;;;;23.13;10.55;;;;;;;;;;5024245;28;19940;-73
2022/06/24 07:21:29;;;;;;;20.02;10.75;;;;;;;;;;5021124;28;20045;-73
2022/06/24 07:23:55;;;;;;;;;;;;;;;;;;5024050;28;20122;-72
2022/06/24 07:26:21;;;;;;;21.88;11.40;;;;;;;;;;5019956;28;19921;-72
2022/06/24 07:28:47;;;;;;;;;;;;;;;;;;5026958;28;20042;-72
2022/06/24 07:31:17;;;;;;;29.40;12.57;;;;;;;;;;5027849;28;19955;-72
2022/06/24 07:33:43;;;;;;;23.65;12.57;;;;;;;;;;5027917;28;20045;-72
2022/06/24 07:36:10;;;;;;;26.35;11.80;;;;;;;;;;5032602;28;20417;-72
2022/06/24 07:38:36;;;;;;;22.42;12.35;;;;;;;;;;5034682;28;20045;-71
2022/06/24 07:41:02;;;;;;;27.63;11.90;;;;;;;;;;5036039;28;20231;-73
2022/06/24 07:43:28;;;;;;;;;;;;;;;;;;5028356;28;20064;-72
2022/06/24 07:45:55;;;;;;;28.30;13.47;;;;;;;;;;5026802;28;20345;-71
2022/06/24 07:48:21;;;;;;;19.25;11.48;;;;;;;;;;5027537;28;20350;-71
2022/06/24 07:50:48;;;;;;;22.63;11.65;;;;;;;;;;5027013;28;20057;-72
2022/06/24 07:53:14;;;;;;;25.50;12.10;;;;;;;;;;5026042;28;20405;-71
2022/06/24 07:58:25;;;;;;;20.48;11.73;;;;;;;;;;5031596;28;19951;-72
2022/06/24 08:00:51;;;;;;;20.92;12.15;;;;;;;;;;5031109;28;20121;-73
2022/06/24 08:03:17;;;;;;;;;;;;;;;;;;5034254;28;20152;-72
2022/06/24 08:05:43;;;;;;;23.77;13.18;;;;;;;;;;5026180;28;20404;-71
2022/06/24 08:08:10;;;;;;;24.02;12.80;;;;;;;;;;5028385;28;20096;-71
2022/06/24 08:10:36;;;;;;;22.70;13.05;;;;;;;;;;5021032;28;20073;-71
2022/06/24 08:13:03;;;;;;;21.83;12.85;;;;;;;;;;5027234;28;20222;-70
2022/06/24 08:15:29;;;;;;;21.58;13.05;;;;;;;;;;5027920;28;20362;-72
2022/06/24 08:17:55;;;;;;;;;;;;;;;;;;5027267;28;20045;-71
2022/06/24 08:20:21;;;;;;;22.35;12.90;;;;;;;;;;5028056;28;19921;-71
2022/06/24 08:22:47;;;;;;;;;;;;;;;;;;5030009;28;20045;-71
2022/06/24 08:25:13;;;;;;;24.05;13.38;;;;;;;;;;5031795;28;20364;-71
2022/06/24 08:27:39;;;;;;;21.35;13.27;;;;;;;;;;5029011;28;20194;-71
2022/06/24 08:30:05;;;;;;;;;;;;;;;;;;5031740;28;20060;-71
2022/06/24 08:32:31;;;;;;;21.83;11.48;;;;;;;;;;5031487;28;19921;-70
2022/06/24 08:34:57;;;;;;;20.30;12.45;;;;;;;;;;5028870;28;20057;-71
2022/06/24 08:37:23;;;;;;;20.58;11.88;;;;;;;;;;5029875;28;20068;-71
2022/06/24 08:39:49;;;;;;;;;;;;;;;;;;5031605;28;20461;-71
2022/06/24 08:42:18;;;;;;;21.42;11.73;;;;;;;;;;5021002;28;20020;-70
2022/06/24 08:44:45;;;;;;;21.08;12.05;;;;;;;;;;5011467;28;20524;-71
2022/06/24 08:47:14;;;;;;;19.65;10.10;;;;;;;;;;5026189;28;20050;-71
2022/06/24 08:49:41;;;;;;;19.15;10.57;;;;;;;;;;5010515;28;20152;-71
2022/06/24 08:52:09;;;;;;;17.50;9.02;;;;;;;;;;5030095;28;20189;-72
2022/06/24 08:54:36;;;;;;;18.75;9.63;;;;;;;;;;5030295;28;20139;-71
2022/06/24 08:57:02;;;;;;;17.23;9.30;;;;;;;;;;5030418;28;20045;-72
2022/06/24 08:59:29;;;;;;;;;;;;;;;;;;5044859;28;20065;-72
2022/06/24 09:01:55;;;;;;;20.48;9.70;;;;;;;;;;5029973;28;19920;-72
2022/06/24 09:04:22;;;;;;;16.90;9.48;;;;;;;;;;5028912;28;20508;-71
2022/06/24 09:06:48;;;;;;;18.40;9.93;;;;;;;;;;5029285;28;20049;-72
2022/06/24 09:09:14;;;;;;;;;;;;;;;;;;5029453;28;20088;-72
2022/06/24 09:11:41;;;;;;;23.33;10.00;;;;;;;;;;5030448;28;19921;-71
2022/06/24 09:14:07;;;;;;;22.98;11.20;;;;;;;;;;5030620;28;20485;-72
2022/06/24 09:16:36;;;;;;;23.15;11.38;;;;;;;;;;5013817;28;20450;-73
2022/06/24 09:19:04;;;;;;;28.08;12.60;;;;;;;;;;5018946;28;20045;-72
2022/06/24 09:21:34;;;;;;;21.88;11.65;;;;;;;;;;5030379;28;20065;-71
2022/06/24 09:24:02;;;;;;;21.20;11.48;;;;;;;;;;5029007;28;20061;-71
2022/06/24 09:26:31;;;;;;;26.45;12.93;;;;;;;;;;5030513;28;20092;-70
2022/06/24 09:28:58;;;;;;;21.42;12.50;;;;;;;;;;5026580;28;20386;-71
2022/06/24 09:31:25;;;;;;;24.77;12.68;;;;;;;;;;5020778;28;20053;-71
2022/06/24 09:33:52;;;;;;;25.10;13.55;;;;;;;;;;5029849;28;20046;-72
2022/06/24 09:36:21;;;;;;;23.15;12.63;;;;;;;;;;5030539;28;20358;-72
2022/06/24 09:39:00;;;;;;;21.95;11.80;;;;;;;;;;5030268;28;20052;-71
2022/06/24 09:41:27;;;;;;;23.45;13.35;;;;;;;;;;5010689;28;20209;-71
2022/06/24 09:43:53;;;;;;;21.00;11.10;;;;;;;;;;5018242;28;20128;-71
2022/06/24 09:46:21;;;;;;;26.20;11.82;;;;;;;;;;5030252;28;20061;-71
2022/06/24 09:48:47;;;;;;;21.88;11.10;;;;;;;;;;5030142;28;20045;-70
2022/06/24 09:51:17;;;;;;;21.60;11.27;;;;;;;;;;5029693;28;20042;-71
2022/06/24 09:53:45;;;;;;;31.90;14.95;;;;;;;;;;5028858;28;20111;-74
2022/06/24 09:56:11;;;;;;;30.23;16.70;;;;;;;;;;5021467;28;20045;-72
2022/06/24 09:58:38;;;;;;;31.27;16.98;;;;;;;;;;5029479;28;20042;-73
2022/06/24 10:01:04;;;;;;;23.35;13.35;;;;;;;;;;5027290;28;20218;-73
2022/06/24 10:03:31;;;;;;;25.30;13.23;;;;;;;;;;5029374;28;20137;-73
2022/06/24 10:06:04;;;;;;;31.17;15.90;;;;;;;;;;5028968;28;20057;-72
2022/06/24 10:08:32;;;;;;;22.85;12.15;;;;;;;;;;5029836;28;20512;-73
2022/06/24 10:10:59;;;;;;;24.45;11.02;;;;;;;;;;5029847;28;20053;-73
2022/06/24 10:13:26;;;;;;;19.10;11.35;;;;;;;;;;5029477;28;20045;-73
2022/06/24 10:15:54;;;;;;;23.58;13.43;;;;;;;;;;5029761;28;20147;-71
2022/06/24 10:18:22;;;;;;;23.73;14.40;;;;;;;;;;5029295;28;20135;-72
2022/06/24 10:20:50;;;;;;;21.77;13.07;;;;;;;;;;5022475;28;20041;-74
2022/06/24 10:23:35;;;;;;;24.67;13.38;;;;;;;;;;5027653;28;20419;-73
2022/06/24 10:26:08;;;;;;;23.23;14.43;;;;;;;;;;5033050;28;20052;-73
2022/06/24 10:28:37;;;;;;;34.70;19.23;;;;;;;;;;5035013;28;20048;-75
2022/06/24 10:31:03;;;;;;;28.15;16.20;;;;;;;;;;5038793;28;20505;-74
2022/06/24 10:33:29;;;;;;;;;;;;;;;;;;5037602;28;20057;-73
2022/06/24 10:36:01;;;;;;;33.65;18.02;;;;;;;;;;5035431;28;20364;-74
2022/06/24 10:38:36;;;;;;;39.45;20.50;;;;;;;;;;5028993;28;20410;-75
2022/06/24 10:41:03;;;;;;;47.75;22.95;;;;;;;;;;5025034;28;20089;-75
2022/06/24 10:43:37;;;;;;;46.25;24.08;;;;;;;;;;5025617;28;20053;-74
2022/06/24 10:46:12;;;;;;;42.53;22.42;;;;;;;;;;5025354;28;20435;-73
2022/06/24 10:48:59;;;;;;;26.38;15.48;;;;;;;;;;5028613;28;20178;-76
2022/06/24 10:51:28;;;;;;;25.88;15.10;;;;;;;;;;5026444;28;20072;-76
2022/06/24 10:54:09;;;;;;;37.35;19.65;;;;;;;;;;5027338;28;20064;-74
2022/06/24 10:56:48;;;;;;;23.95;13.45;;;;;;;;;;5028971;28;20060;-76
2022/06/24 10:59:19;;;;;;;29.38;15.85;;;;;;;;;;5028385;28;20056;-73
2022/06/24 11:01:49;;;;;;;32.63;16.85;;;;;;;;;;5022854;28;20049;-73
2022/06/24 11:04:17;;;;;;;21.77;12.00;;;;;;;;;;5007042;28;20049;-83
2022/06/24 11:07:03;;;;;;;25.83;16.35;;;;;;;;;;5025516;28;20512;-81
2022/06/24 11:09:29;;;;;;;20.70;10.77;;;;;;;;;;5004211;28;20068;-78
2022/06/24 11:11:55;;;;;;;15.05;7.28;;;;;;;;;;5031730;28;20103;-72
2022/06/24 11:14:25;;;;;;;15.15;8.05;;;;;;;;;;5019572;28;20058;-79
2022/06/24 11:16:51;;;;;;;12.82;5.88;;;;;;;;;;5019043;28;20049;-74
2022/06/24 11:19:18;;;;;;;19.35;8.23;;;;;;;;;;5027836;28;20045;-80
2022/06/24 11:21:48;;;;;;;14.00;6.50;;;;;;;;;;5027263;28;20132;-76
2022/06/24 11:24:15;;;;;;;17.13;7.68;;;;;;;;;;5026841;28;20053;-80
2022/06/24 11:26:42;;;;;;;28.65;10.70;;;;;;;;;;5027177;28;20072;-78
2022/06/24 11:29:08;;;;;;;15.52;8.50;;;;;;;;;;5028274;28;20103;-79
2022/06/24 11:31:34;;;;;;;13.63;8.07;;;;;;;;;;5024201;28;20053;-78
2022/06/24 11:34:03;;;;;;;26.35;11.65;;;;;;;;;;5029613;28;20038;-79
2022/06/24 11:36:31;;;;;;;18.90;9.20;;;;;;;;;;5025730;28;20485;-77
2022/06/24 11:38:57;;;;;;;18.00;10.70;;;;;;;;;;5017731;28;20073;-77
2022/06/24 11:41:24;;;;;;;23.50;11.85;;;;;;;;;;5029915;28;20050;-78
2022/06/24 11:43:50;;;;;;;18.05;11.20;;;;;;;;;;5043114;28;20397;-77
2022/06/24 11:46:17;;;;;;;20.60;12.38;;;;;;;;;;5026291;28;20402;-80
2022/06/24 11:48:43;;;;;;;31.35;16.80;;;;;;;;;;5022665;28;20148;-77
2022/06/24 11:51:09;;;;;;;;;;;;;;;;;;5025191;28;20124;-79
2022/06/24 11:53:35;;;;;;;22.40;13.52;;;;;;;;;;5019910;28;20020;-78
2022/06/24 11:56:01;;;;;;;20.27;11.70;;;;;;;;;;5023846;28;20438;-77
2022/06/24 11:58:27;;;;;;;19.85;11.68;;;;;;;;;;5027761;28;20186;-77
2022/06/24 12:00:54;;;;;;;29.67;16.95;;;;;;;;;;5029076;28;20144;-77
2022/06/24 12:03:21;;;;;;;53.45;24.05;;;;;;;;;;5022821;28;20081;-77
2022/06/24 12:05:47;;;;;;;26.85;15.32;;;;;;;;;;5027155;28;21088;-75
2022/06/24 12:08:13;;;;;;;;;;;;;;;;;;5026324;28;20054;-77
2022/06/24 12:10:49;;;;;;;29.90;14.85;;;;;;;;;;5025238;28;20091;-76
2022/06/24 12:13:24;;;;;;;28.02;15.20;;;;;;;;;;5022806;28;20082;-77
2022/06/24 12:15:52;;;;;;;30.90;16.20;;;;;;;;;;5028193;28;20060;-76
2022/06/24 12:18:19;;;;;;;26.30;16.05;;;;;;;;;;5027379;28;20527;-76
2022/06/24 12:21:01;;;;;;;29.92;17.48;;;;;;;;;;5027893;28;20450;-76
2022/06/24 12:23:32;;;;;;;29.63;16.33;;;;;;;;;;5024908;28;20076;-75
2022/06/24 12:25:58;;;;;;;18.88;12.40;;;;;;;;;;5027919;28;20050;-75
2022/06/24 12:28:26;;;;;;;40.22;20.88;;;;;;;;;;5027428;28;20049;-75
2022/06/24 12:31:11;;;;;;;30.08;17.55;;;;;;;;;;5027828;28;20553;-75
2022/06/24 12:33:49;;;;;;;43.70;23.25;;;;;;;;;;5014317;28;20058;-75
2022/06/24 12:36:16;;;;;;;34.60;20.55;;;;;;;;;;5014533;28;20132;-75
2022/06/24 12:38:45;;;;;;;42.25;21.67;;;;;;;;;;5048415;28;20120;-74
2022/06/24 12:41:13;;;;;;;41.35;21.45;;;;;;;;;;5027700;28;20069;-75
2022/06/24 12:43:52;;;;;;;25.85;15.20;;;;;;;;;;5025458;28;20358;-74
2022/06/24 12:46:18;;;;;;;24.60;15.43;;;;;;;;;;5020258;28;20050;-74
2022/06/24 12:51:28;;;;;;;24.80;16.48;;;;;;;;;;5031106;28;19994;-73
2022/06/24 12:53:55;;;;;;;32.65;20.67;;;;;;;;;;5036134;28;20059;-72
2022/06/24 12:56:21;;;;;;;28.52;18.92;;;;;;;;;;5029335;28;20081;-72
2022/06/24 12:58:54;;;;;;;28.52;17.27;;;;;;;;;;5025911;28;20113;-72
2022/06/24 13:01:20;;;;;;;25.73;17.25;;;;;;;;;;5024922;28;20037;-72
2022/06/24 13:03:46;;;;;;;28.30;18.10;;;;;;;;;;5027089;28;20175;-72
2022/06/24 13:06:12;;;;;;;25.92;17.30;;;;;;;;;;5026219;28;20053;-72
2022/06/24 13:08:38;;;;;;;27.10;17.67;;;;;;;;;;5028851;28;20049;-72
2022/06/24 13:11:04;;;;;;;26.63;17.33;;;;;;;;;;5040020;28;20465;-72
2022/06/24 13:13:31;;;;;;;45.47;23.88;;;;;;;;;;5041578;28;20044;-72
2022/06/24 13:15:57;;;;;;;27.95;17.67;;;;;;;;;;5031114;28;20120;-72
2022/06/24 13:18:23;;;;;;;26.92;17.40;;;;;;;;;;5026503;28;20049;-72
2022/06/24 13:20:49;;;;;;;;;;;;;;;;;;5029696;28;20167;-72
2022/06/24 13:23:15;;;;;;;29.38;20.15;;;;;;;;;;5029770;28;19921;-72
2022/06/24 13:25:41;;;;;;;29.13;18.60;;;;;;;;;;5030887;28;20049;-72
2022/06/24 13:28:07;;;;;;;;;;;;;;;;;;5030610;28;20144;-72
2022/06/24 13:30:33;;;;;;;31.95;21.88;;;;;;;;;;5029367;28;20027;-71
2022/06/24 13:33:02;;;;;;;36.33;24.00;;;;;;;;;;5030374;28;20072;-72
2022/06/24 13:35:28;;;;;;;38.17;24.42;;;;;;;;;;5028418;28;20109;-71
2022/06/24 13:37:54;;;;;;;;;;;;;;;;;;5026074;28;20056;-71
2022/06/24 13:40:20;;;;;;;35.92;25.90;;;;;;;;;;5026675;28;19925;-71
2022/06/24 13:42:46;;;;;;;;;;;;;;;;;;5029237;28;20064;-72
2022/06/24 13:45:12;;;;;;;57.97;34.10;;;;;;;;;;5016183;28;19936;-71
2022/06/24 13:47:38;;;;;;;44.30;32.33;;;;;;;;;;5013127;28;20105;-71
2022/06/24 13:50:05;;;;;;;36.88;27.30;;;;;;;;;;5028015;28;20187;-71
2022/06/24 13:52:31;;;;;;;33.78;25.33;;;;;;;;;;5028360;28;20125;-71
2022/06/24 13:54:57;;;;;;;;;;;;;;;;;;5028162;28;20045;-72
2022/06/24 13:57:24;;;;;;;36.70;28.30;;;;;;;;;;5016310;28;20028;-71
2022/06/24 13:59:50;;;;;;;39.50;29.90;;;;;;;;;;5027350;28;20072;-71
2022/06/24 14:02:17;;;;;;;41.75;32.17;;;;;;;;;;5029121;28;20496;-70
2022/06/24 14:04:44;;;;;;;39.45;31.85;;;;;;;;;;5028837;28;20105;-71
2022/06/24 14:07:10;;;;;;;33.17;26.48;;;;;;;;;;5029891;28;20068;-71
2022/06/24 14:09:36;;;;;;;;;;;;;;;;;;5028377;28;20167;-70
2022/06/24 14:12:02;;;;;;;49.33;34.70;;;;;;;;;;5044337;28;19947;-71
2022/06/24 14:14:28;;;;;;;;;;;;;;;;;;5028931;28;20053;-69
2022/06/24 14:16:54;;;;;;;34.10;27.60;;;;;;;;;;5044224;28;19932;-71
2022/06/24 14:19:20;;;;;;;;;;;;;;;;;;5015017;28;20468;-70
2022/06/24 14:21:46;;;;;;;31.88;25.73;;;;;;;;;;5027109;28;19921;-71
2022/06/24 14:26:57;;;;;;;35.78;27.90;;;;;;;;;;5023952;28;20072;-69
2022/06/24 14:29:23;;;;;;;39.15;29.40;;;;;;;;;;5028048;28;20049;-69
2022/06/24 14:31:49;;;;;;;36.78;28.70;;;;;;;;;;5027459;28;20120;-68
2022/06/24 14:34:15;;;;;;;;;;;;;;;;;;5035102;28;20113;-69
2022/06/24 14:36:42;;;;;;;34.53;28.70;;;;;;;;;;5028565;28;19920;-68
2022/06/24 14:41:52;;;;;;;39.92;31.33;;;;;;;;;;5014096;28;20500;-69
2022/06/24 14:44:18;;;;;;;;;;;;;;;;;;5015788;28;20150;-68
2022/06/24 14:46:44;;;;;;;35.67;27.63;;;;;;;;;;5011489;28;20039;-68
2022/06/24 14:49:10;;;;;;;;;;;;;;;;;;5022969;28;20053;-68
2022/06/24 14:51:36;;;;;;;32.80;25.92;;;;;;;;;;5010800;28;19956;-68
2022/06/24 14:54:03;;;;;;;28.52;23.75;;;;;;;;;;5018594;28;20049;-68
2022/06/24 14:56:29;;;;;;;30.17;24.08;;;;;;;;;;5011164;28;20056;-70
2022/06/24 14:58:55;;;;;;;;;;;;;;;;;;5020245;28;20033;-66
2022/06/24 15:01:21;;;;;;;28.58;22.73;;;;;;;;;;5012722;28;19921;-68
2022/06/24 15:03:47;;;;;;;33.15;26.98;;;;;;;;;;5007940;28;20041;-68
2022/06/24 15:06:13;;;;;;;;;;;;;;;;;;5016850;28;20068;-68